sensor_id;sensor_type;location;lat;lon;timestamp;temperature;humidity
10149;DHT22;5115;50.920;6.376;2023-11-19T00:02:14;13.30;99.90
10149;DHT22;5115;50.920;6.376;2023-11-19T00:04:40;13.30;99.90
10149;DHT22;5115;50.920;6.376;2023-11-19T00:07:06;13.30;99.90
10149;DHT22;5115;50.920;6.376;2023-11-19T00:09:33;13.30;99.90
10149;DHT22;5115;50.920;6.376;2023-11-19T00:12:00;13.30;99.90
10149;DHT22;5115;50.920;6.376;2023-11-19T00:14:26;13.30;99.90
10149;DHT22;5115;50.920;6.376;2023-11-19T00:16:51;13.30;99.90
10149;DHT22;5115;50.920;6.376;2023-11-19T00:19:17;13.30;99.90
10149;DHT22;5115;50.920;6.376;2023-11-19T00:21:42;13.30;99.90
10149;DHT22;5115;50.920;6.376;2023-11-19T00:24:09;13.30;99.90
10149;DHT22;5115;50.920;6.376;2023-11-19T00:26:34;13.30;99.90
10149;DHT22;5115;50.920;6.376;2023-11-19T00:29:00;13.40;99.90
10149;DHT22;5115;50.920;6.376;2023-11-19T00:31:26;13.30;99.90
10149;DHT22;5115;50.920;6.376;2023-11-19T00:33:53;13.30;99.90
10149;DHT22;5115;50.920;6.376;2023-11-19T00:36:19;13.30;99.90
10149;DHT22;5115;50.920;6.376;2023-11-19T00:38:44;13.40;99.90
10149;DHT22;5115;50.920;6.376;2023-11-19T00:41:10;13.40;99.90
10149;DHT22;5115;50.920;6.376;2023-11-19T00:43:35;13.40;99.90
10149;DHT22;5115;50.920;6.376;2023-11-19T00:46:01;13.40;99.90
10149;DHT22;5115;50.920;6.376;2023-11-19T00:48:29;13.50;99.90
10149;DHT22;5115;50.920;6.376;2023-11-19T00:50:55;13.50;99.90
10149;DHT22;5115;50.920;6.376;2023-11-19T00:53:20;13.40;99.90
10149;DHT22;5115;50.920;6.376;2023-11-19T00:55:46;13.40;99.90
10149;DHT22;5115;50.920;6.376;2023-11-19T00:58:12;13.50;99.90
10149;DHT22;5115;50.920;6.376;2023-11-19T01:00:37;13.50;99.90
10149;DHT22;5115;50.920;6.376;2023-11-19T01:03:03;13.40;99.90
10149;DHT22;5115;50.920;6.376;2023-11-19T01:05:28;13.40;99.90
10149;DHT22;5115;50.920;6.376;2023-11-19T01:07:54;13.40;99.90
10149;DHT22;5115;50.920;6.376;2023-11-19T01:10:20;13.40;99.90
10149;DHT22;5115;50.920;6.376;2023-11-19T01:12:46;13.50;99.90
10149;DHT22;5115;50.920;6.376;2023-11-19T01:15:11;13.60;99.90
10149;DHT22;5115;50.920;6.376;2023-11-19T01:17:38;13.70;99.90
10149;DHT22;5115;50.920;6.376;2023-11-19T01:20:04;13.70;99.90
10149;DHT22;5115;50.920;6.376;2023-11-19T01:22:32;13.80;99.90
10149;DHT22;5115;50.920;6.376;2023-11-19T01:24:58;13.80;99.90
10149;DHT22;5115;50.920;6.376;2023-11-19T01:27:26;13.80;99.90
10149;DHT22;5115;50.920;6.376;2023-11-19T01:29:52;13.90;99.90
10149;DHT22;5115;50.920;6.376;2023-11-19T01:32:17;13.80;99.90
10149;DHT22;5115;50.920;6.376;2023-11-19T01:34:43;13.90;99.90
10149;DHT22;5115;50.920;6.376;2023-11-19T01:37:08;13.90;99.90
10149;DHT22;5115;50.920;6.376;2023-11-19T01:39:35;13.90;99.90
10149;DHT22;5115;50.920;6.376;2023-11-19T01:42:01;13.80;99.90
10149;DHT22;5115;50.920;6.376;2023-11-19T01:44:26;13.80;99.90
10149;DHT22;5115;50.920;6.376;2023-11-19T01:46:52;13.90;99.90
10149;DHT22;5115;50.920;6.376;2023-11-19T01:49:19;13.90;99.90
10149;DHT22;5115;50.920;6.376;2023-11-19T01:51:46;13.90;99.90
10149;DHT22;5115;50.920;6.376;2023-11-19T01:54:12;14.00;99.90
10149;DHT22;5115;50.920;6.376;2023-11-19T01:56:40;14.00;99.90
10149;DHT22;5115;50.920;6.376;2023-11-19T01:59:07;14.00;99.90
10149;DHT22;5115;50.920;6.376;2023-11-19T02:01:33;14.10;99.90
10149;DHT22;5115;50.920;6.376;2023-11-19T02:04:03;14.20;99.90
10149;DHT22;5115;50.920;6.376;2023-11-19T02:06:30;14.10;99.90
10149;DHT22;5115;50.920;6.376;2023-11-19T02:08:57;14.10;99.90
10149;DHT22;5115;50.920;6.376;2023-11-19T02:11:22;14.10;99.90
10149;DHT22;5115;50.920;6.376;2023-11-19T02:13:48;14.10;99.90
10149;DHT22;5115;50.920;6.376;2023-11-19T02:16:13;14.10;99.90
10149;DHT22;5115;50.920;6.376;2023-11-19T02:18:39;14.10;99.90
10149;DHT22;5115;50.920;6.376;2023-11-19T02:21:05;14.10;99.90
10149;DHT22;5115;50.920;6.376;2023-11-19T02:23:31;14.10;99.90
10149;DHT22;5115;50.920;6.376;2023-11-19T02:26:00;14.10;99.90
10149;DHT22;5115;50.920;6.376;2023-11-19T02:28:26;14.10;99.90
10149;DHT22;5115;50.920;6.376;2023-11-19T02:30:52;14.10;99.90
10149;DHT22;5115;50.920;6.376;2023-11-19T02:33:18;14.10;99.90
10149;DHT22;5115;50.920;6.376;2023-11-19T02:35:44;14.10;99.90
10149;DHT22;5115;50.920;6.376;2023-11-19T02:38:09;14.10;99.90
10149;DHT22;5115;50.920;6.376;2023-11-19T02:40:36;14.00;99.90
10149;DHT22;5115;50.920;6.376;2023-11-19T02:43:01;14.00;99.90
10149;DHT22;5115;50.920;6.376;2023-11-19T02:45:30;14.00;99.90
10149;DHT22;5115;50.920;6.376;2023-11-19T02:47:56;14.00;99.90
10149;DHT22;5115;50.920;6.376;2023-11-19T02:50:22;14.00;99.90
10149;DHT22;5115;50.920;6.376;2023-11-19T02:52:55;13.90;99.90
10149;DHT22;5115;50.920;6.376;2023-11-19T02:55:22;13.90;99.90
10149;DHT22;5115;50.920;6.376;2023-11-19T02:57:49;14.00;99.90
10149;DHT22;5115;50.920;6.376;2023-11-19T03:00:19;13.90;99.90
10149;DHT22;5115;50.920;6.376;2023-11-19T03:02:49;14.00;99.90
10149;DHT22;5115;50.920;6.376;2023-11-19T03:05:24;14.00;99.90
10149;DHT22;5115;50.920;6.376;2023-11-19T03:07:49;14.00;99.90
10149;DHT22;5115;50.920;6.376;2023-11-19T03:10:15;14.00;99.90
10149;DHT22;5115;50.920;6.376;2023-11-19T03:12:41;13.90;99.90
10149;DHT22;5115;50.920;6.376;2023-11-19T03:15:07;14.00;99.90
10149;DHT22;5115;50.920;6.376;2023-11-19T03:17:38;14.00;99.90
10149;DHT22;5115;50.920;6.376;2023-11-19T03:20:08;14.00;99.90
10149;DHT22;5115;50.920;6.376;2023-11-19T03:22:41;14.00;99.90
10149;DHT22;5115;50.920;6.376;2023-11-19T03:25:10;14.00;99.90
10149;DHT22;5115;50.920;6.376;2023-11-19T03:27:36;13.90;99.90
10149;DHT22;5115;50.920;6.376;2023-11-19T03:30:03;14.00;99.90
10149;DHT22;5115;50.920;6.376;2023-11-19T03:32:32;14.00;99.90
10149;DHT22;5115;50.920;6.376;2023-11-19T03:34:58;14.00;99.90
10149;DHT22;5115;50.920;6.376;2023-11-19T03:37:25;14.00;99.90
10149;DHT22;5115;50.920;6.376;2023-11-19T03:39:51;14.10;99.90
10149;DHT22;5115;50.920;6.376;2023-11-19T03:42:19;14.10;99.90
10149;DHT22;5115;50.920;6.376;2023-11-19T03:44:46;14.10;99.90
10149;DHT22;5115;50.920;6.376;2023-11-19T03:47:11;14.10;99.90
10149;DHT22;5115;50.920;6.376;2023-11-19T03:49:37;14.00;99.90
10149;DHT22;5115;50.920;6.376;2023-11-19T03:52:02;14.10;99.90
10149;DHT22;5115;50.920;6.376;2023-11-19T03:54:28;14.00;99.90
10149;DHT22;5115;50.920;6.376;2023-11-19T03:56:54;14.00;99.90
10149;DHT22;5115;50.920;6.376;2023-11-19T03:59:19;14.00;99.90
10149;DHT22;5115;50.920;6.376;2023-11-19T04:01:46;13.90;99.90
10149;DHT22;5115;50.920;6.376;2023-11-19T04:04:11;13.80;99.90
10149;DHT22;5115;50.920;6.376;2023-11-19T04:06:37;13.80;99.90
10149;DHT22;5115;50.920;6.376;2023-11-19T04:09:03;13.80;99.90
10149;DHT22;5115;50.920;6.376;2023-11-19T04:11:28;13.80;99.90
10149;DHT22;5115;50.920;6.376;2023-11-19T04:13:54;13.70;99.90
10149;DHT22;5115;50.920;6.376;2023-11-19T04:16:26;13.70;99.90
10149;DHT22;5115;50.920;6.376;2023-11-19T04:18:53;13.70;99.90
10149;DHT22;5115;50.920;6.376;2023-11-19T04:21:18;13.70;99.90
10149;DHT22;5115;50.920;6.376;2023-11-19T04:23:44;13.70;99.90
10149;DHT22;5115;50.920;6.376;2023-11-19T04:26:09;13.70;99.90
10149;DHT22;5115;50.920;6.376;2023-11-19T04:28:35;13.80;99.90
10149;DHT22;5115;50.920;6.376;2023-11-19T04:31:00;13.80;99.90
10149;DHT22;5115;50.920;6.376;2023-11-19T04:33:26;13.90;99.90
10149;DHT22;5115;50.920;6.376;2023-11-19T04:35:52;13.80;99.90
10149;DHT22;5115;50.920;6.376;2023-11-19T04:38:17;13.80;99.90
10149;DHT22;5115;50.920;6.376;2023-11-19T04:40:43;13.70;99.90
10149;DHT22;5115;50.920;6.376;2023-11-19T04:43:09;13.60;99.90
10149;DHT22;5115;50.920;6.376;2023-11-19T04:45:34;13.70;99.90
10149;DHT22;5115;50.920;6.376;2023-11-19T04:48:00;13.60;99.90
10149;DHT22;5115;50.920;6.376;2023-11-19T04:50:25;13.60;99.90
10149;DHT22;5115;50.920;6.376;2023-11-19T04:52:52;13.50;99.90
10149;DHT22;5115;50.920;6.376;2023-11-19T04:55:19;13.50;99.90
10149;DHT22;5115;50.920;6.376;2023-11-19T04:57:44;13.50;99.90
10149;DHT22;5115;50.920;6.376;2023-11-19T05:00:10;13.50;99.90
10149;DHT22;5115;50.920;6.376;2023-11-19T05:02:36;13.40;99.90
10149;DHT22;5115;50.920;6.376;2023-11-19T05:05:03;13.40;99.90
10149;DHT22;5115;50.920;6.376;2023-11-19T05:07:30;13.40;99.90
10149;DHT22;5115;50.920;6.376;2023-11-19T05:09:55;13.30;99.90
10149;DHT22;5115;50.920;6.376;2023-11-19T05:12:21;13.30;99.90
10149;DHT22;5115;50.920;6.376;2023-11-19T05:14:47;13.30;99.90
10149;DHT22;5115;50.920;6.376;2023-11-19T05:17:18;13.30;99.90
10149;DHT22;5115;50.920;6.376;2023-11-19T05:19:45;13.30;99.90
10149;DHT22;5115;50.920;6.376;2023-11-19T05:22:10;13.30;99.90
10149;DHT22;5115;50.920;6.376;2023-11-19T05:24:36;13.20;99.90
10149;DHT22;5115;50.920;6.376;2023-11-19T05:27:01;13.20;99.90
10149;DHT22;5115;50.920;6.376;2023-11-19T05:29:27;13.20;99.90
10149;DHT22;5115;50.920;6.376;2023-11-19T05:31:53;13.20;99.90
10149;DHT22;5115;50.920;6.376;2023-11-19T05:34:20;13.20;99.90
10149;DHT22;5115;50.920;6.376;2023-11-19T05:36:46;13.20;99.90
10149;DHT22;5115;50.920;6.376;2023-11-19T05:39:12;13.10;99.90
10149;DHT22;5115;50.920;6.376;2023-11-19T05:41:37;12.90;99.90
10149;DHT22;5115;50.920;6.376;2023-11-19T05:44:03;13.20;99.90
10149;DHT22;5115;50.920;6.376;2023-11-19T05:46:29;13.20;99.90
10149;DHT22;5115;50.920;6.376;2023-11-19T05:48:54;13.10;99.90
10149;DHT22;5115;50.920;6.376;2023-11-19T05:51:20;13.20;99.90
10149;DHT22;5115;50.920;6.376;2023-11-19T05:53:45;13.10;99.90
10149;DHT22;5115;50.920;6.376;2023-11-19T05:56:11;13.20;99.90
10149;DHT22;5115;50.920;6.376;2023-11-19T05:58:37;13.20;99.90
10149;DHT22;5115;50.920;6.376;2023-11-19T06:01:05;13.10;99.90
10149;DHT22;5115;50.920;6.376;2023-11-19T06:03:32;13.20;99.90
10149;DHT22;5115;50.920;6.376;2023-11-19T06:05:58;13.00;99.90
10149;DHT22;5115;50.920;6.376;2023-11-19T06:08:24;13.10;99.90
10149;DHT22;5115;50.920;6.376;2023-11-19T06:10:49;12.30;99.90
10149;DHT22;5115;50.920;6.376;2023-11-19T06:13:16;13.10;99.90
10149;DHT22;5115;50.920;6.376;2023-11-19T06:15:42;13.10;99.90
10149;DHT22;5115;50.920;6.376;2023-11-19T06:18:08;13.10;99.90
10149;DHT22;5115;50.920;6.376;2023-11-19T06:20:34;13.20;99.90
10149;DHT22;5115;50.920;6.376;2023-11-19T06:22:59;13.10;99.90
10149;DHT22;5115;50.920;6.376;2023-11-19T06:25:25;13.10;99.90
10149;DHT22;5115;50.920;6.376;2023-11-19T06:27:52;13.10;99.90
10149;DHT22;5115;50.920;6.376;2023-11-19T06:30:17;13.10;99.90
10149;DHT22;5115;50.920;6.376;2023-11-19T06:32:43;13.20;99.90
10149;DHT22;5115;50.920;6.376;2023-11-19T06:35:09;13.20;99.90
10149;DHT22;5115;50.920;6.376;2023-11-19T06:37:35;13.20;99.90
10149;DHT22;5115;50.920;6.376;2023-11-19T06:40:01;13.20;99.90
10149;DHT22;5115;50.920;6.376;2023-11-19T06:42:27;13.20;99.90
10149;DHT22;5115;50.920;6.376;2023-11-19T06:44:53;13.10;99.90
10149;DHT22;5115;50.920;6.376;2023-11-19T06:47:18;13.10;99.90
10149;DHT22;5115;50.920;6.376;2023-11-19T06:49:44;13.10;99.90
10149;DHT22;5115;50.920;6.376;2023-11-19T06:52:10;13.10;99.90
10149;DHT22;5115;50.920;6.376;2023-11-19T06:54:39;13.10;99.90
10149;DHT22;5115;50.920;6.376;2023-11-19T06:57:04;13.10;99.90
10149;DHT22;5115;50.920;6.376;2023-11-19T06:59:30;13.10;99.90
10149;DHT22;5115;50.920;6.376;2023-11-19T07:01:56;13.20;99.90
10149;DHT22;5115;50.920;6.376;2023-11-19T07:04:21;13.10;99.90
10149;DHT22;5115;50.920;6.376;2023-11-19T07:06:47;13.00;99.90
10149;DHT22;5115;50.920;6.376;2023-11-19T07:09:14;13.00;99.90
10149;DHT22;5115;50.920;6.376;2023-11-19T07:11:41;13.00;99.90
10149;DHT22;5115;50.920;6.376;2023-11-19T07:14:07;13.00;99.90
10149;DHT22;5115;50.920;6.376;2023-11-19T07:16:33;13.10;99.90
10149;DHT22;5115;50.920;6.376;2023-11-19T07:19:06;13.00;99.90
10149;DHT22;5115;50.920;6.376;2023-11-19T07:21:31;13.00;99.90
10149;DHT22;5115;50.920;6.376;2023-11-19T07:23:58;12.90;99.90
10149;DHT22;5115;50.920;6.376;2023-11-19T07:26:24;12.90;99.90
10149;DHT22;5115;50.920;6.376;2023-11-19T07:28:50;13.00;99.90
10149;DHT22;5115;50.920;6.376;2023-11-19T07:31:16;13.00;99.90
10149;DHT22;5115;50.920;6.376;2023-11-19T07:33:45;13.00;99.90
10149;DHT22;5115;50.920;6.376;2023-11-19T07:36:11;13.00;99.90
10149;DHT22;5115;50.920;6.376;2023-11-19T07:38:37;13.10;99.90
10149;DHT22;5115;50.920;6.376;2023-11-19T07:41:04;13.10;99.90
10149;DHT22;5115;50.920;6.376;2023-11-19T07:43:30;13.20;99.90
10149;DHT22;5115;50.920;6.376;2023-11-19T07:45:56;13.20;99.90
10149;DHT22;5115;50.920;6.376;2023-11-19T07:48:21;13.20;99.90
10149;DHT22;5115;50.920;6.376;2023-11-19T07:50:49;13.30;99.90
10149;DHT22;5115;50.920;6.376;2023-11-19T07:53:18;13.60;99.90
10149;DHT22;5115;50.920;6.376;2023-11-19T07:55:44;13.80;99.90
10149;DHT22;5115;50.920;6.376;2023-11-19T07:58:13;14.30;99.90
10149;DHT22;5115;50.920;6.376;2023-11-19T08:00:38;14.80;99.90
10149;DHT22;5115;50.920;6.376;2023-11-19T08:03:04;15.20;99.90
10149;DHT22;5115;50.920;6.376;2023-11-19T08:05:31;15.70;99.90
10149;DHT22;5115;50.920;6.376;2023-11-19T08:07:57;16.00;99.90
10149;DHT22;5115;50.920;6.376;2023-11-19T08:10:23;16.30;99.90
10149;DHT22;5115;50.920;6.376;2023-11-19T08:12:48;16.70;99.90
10149;DHT22;5115;50.920;6.376;2023-11-19T08:15:14;16.90;99.90
10149;DHT22;5115;50.920;6.376;2023-11-19T08:17:41;17.10;99.90
10149;DHT22;5115;50.920;6.376;2023-11-19T08:20:07;17.20;99.90
10149;DHT22;5115;50.920;6.376;2023-11-19T08:22:36;17.10;99.90
10149;DHT22;5115;50.920;6.376;2023-11-19T08:25:02;17.20;99.90
10149;DHT22;5115;50.920;6.376;2023-11-19T08:27:29;17.40;99.90
10149;DHT22;5115;50.920;6.376;2023-11-19T08:29:55;17.70;99.90
10149;DHT22;5115;50.920;6.376;2023-11-19T08:32:27;18.00;99.90
10149;DHT22;5115;50.920;6.376;2023-11-19T08:34:53;18.40;99.90
10149;DHT22;5115;50.920;6.376;2023-11-19T08:37:19;18.90;99.90
10149;DHT22;5115;50.920;6.376;2023-11-19T08:39:49;19.20;99.90
10149;DHT22;5115;50.920;6.376;2023-11-19T08:42:16;19.50;99.90
10149;DHT22;5115;50.920;6.376;2023-11-19T08:44:42;19.50;99.90
10149;DHT22;5115;50.920;6.376;2023-11-19T08:47:13;19.50;99.90
10149;DHT22;5115;50.920;6.376;2023-11-19T08:49:39;19.30;99.90
10149;DHT22;5115;50.920;6.376;2023-11-19T08:52:05;19.30;99.90
10149;DHT22;5115;50.920;6.376;2023-11-19T08:54:33;19.50;99.90
10149;DHT22;5115;50.920;6.376;2023-11-19T08:56:58;19.40;99.90
10149;DHT22;5115;50.920;6.376;2023-11-19T08:59:25;19.60;99.90
10149;DHT22;5115;50.920;6.376;2023-11-19T09:01:50;19.70;99.90
10149;DHT22;5115;50.920;6.376;2023-11-19T09:04:16;19.60;99.90
10149;DHT22;5115;50.920;6.376;2023-11-19T09:06:41;19.60;99.90
10149;DHT22;5115;50.920;6.376;2023-11-19T09:09:08;19.80;99.90
10149;DHT22;5115;50.920;6.376;2023-11-19T09:11:34;19.70;99.90
10149;DHT22;5115;50.920;6.376;2023-11-19T09:13:59;20.10;99.90
10149;DHT22;5115;50.920;6.376;2023-11-19T09:16:25;20.10;99.90
10149;DHT22;5115;50.920;6.376;2023-11-19T09:18:50;20.60;99.90
10149;DHT22;5115;50.920;6.376;2023-11-19T09:21:16;20.70;99.90
10149;DHT22;5115;50.920;6.376;2023-11-19T09:23:41;20.50;99.90
10149;DHT22;5115;50.920;6.376;2023-11-19T09:26:08;20.70;99.90
10149;DHT22;5115;50.920;6.376;2023-11-19T09:28:35;21.20;99.90
10149;DHT22;5115;50.920;6.376;2023-11-19T09:31:01;21.20;99.90
10149;DHT22;5115;50.920;6.376;2023-11-19T09:33:30;21.20;99.90
10149;DHT22;5115;50.920;6.376;2023-11-19T09:35:55;21.20;99.90
10149;DHT22;5115;50.920;6.376;2023-11-19T09:38:21;21.00;99.90
10149;DHT22;5115;50.920;6.376;2023-11-19T09:40:46;21.00;99.90
10149;DHT22;5115;50.920;6.376;2023-11-19T09:43:14;20.80;99.90
10149;DHT22;5115;50.920;6.376;2023-11-19T09:45:50;20.60;99.90
10149;DHT22;5115;50.920;6.376;2023-11-19T09:48:17;20.90;99.90
10149;DHT22;5115;50.920;6.376;2023-11-19T09:50:47;21.10;99.90
10149;DHT22;5115;50.920;6.376;2023-11-19T09:53:13;20.70;99.90
10149;DHT22;5115;50.920;6.376;2023-11-19T09:55:39;20.60;99.90
10149;DHT22;5115;50.920;6.376;2023-11-19T09:58:05;20.70;99.90
10149;DHT22;5115;50.920;6.376;2023-11-19T10:00:32;21.10;99.90
10149;DHT22;5115;50.920;6.376;2023-11-19T10:02:58;20.70;99.90
10149;DHT22;5115;50.920;6.376;2023-11-19T10:05:24;20.30;99.90
10149;DHT22;5115;50.920;6.376;2023-11-19T10:07:50;20.20;99.90
10149;DHT22;5115;50.920;6.376;2023-11-19T10:10:16;20.00;99.90
10149;DHT22;5115;50.920;6.376;2023-11-19T10:12:45;19.90;99.90
10149;DHT22;5115;50.920;6.376;2023-11-19T10:15:19;20.20;99.90
10149;DHT22;5115;50.920;6.376;2023-11-19T10:17:46;20.60;99.90
10149;DHT22;5115;50.920;6.376;2023-11-19T10:20:11;20.70;99.90
10149;DHT22;5115;50.920;6.376;2023-11-19T10:22:37;21.20;99.90
10149;DHT22;5115;50.920;6.376;2023-11-19T10:25:04;20.70;99.90
10149;DHT22;5115;50.920;6.376;2023-11-19T10:27:30;19.90;99.90
10149;DHT22;5115;50.920;6.376;2023-11-19T10:29:59;19.50;99.90
10149;DHT22;5115;50.920;6.376;2023-11-19T10:32:25;19.70;99.90
10149;DHT22;5115;50.920;6.376;2023-11-19T10:34:50;19.40;99.90
10149;DHT22;5115;50.920;6.376;2023-11-19T10:37:28;18.80;99.90
10149;DHT22;5115;50.920;6.376;2023-11-19T10:39:57;17.80;99.90
10149;DHT22;5115;50.920;6.376;2023-11-19T10:42:23;17.00;99.90
10149;DHT22;5115;50.920;6.376;2023-11-19T10:44:49;16.30;99.90
10149;DHT22;5115;50.920;6.376;2023-11-19T10:47:15;16.00;99.90
10149;DHT22;5115;50.920;6.376;2023-11-19T10:49:44;15.70;99.90
10149;DHT22;5115;50.920;6.376;2023-11-19T10:52:11;15.60;99.90
10149;DHT22;5115;50.920;6.376;2023-11-19T10:54:43;15.80;99.90
10149;DHT22;5115;50.920;6.376;2023-11-19T10:57:09;16.20;99.90
10149;DHT22;5115;50.920;6.376;2023-11-19T10:59:37;16.40;99.90
10149;DHT22;5115;50.920;6.376;2023-11-19T11:02:07;16.70;99.90
10149;DHT22;5115;50.920;6.376;2023-11-19T11:04:39;16.80;99.90
10149;DHT22;5115;50.920;6.376;2023-11-19T11:07:05;16.80;99.90
10149;DHT22;5115;50.920;6.376;2023-11-19T11:09:32;16.70;99.90
10149;DHT22;5115;50.920;6.376;2023-11-19T11:11:59;16.90;99.90
10149;DHT22;5115;50.920;6.376;2023-11-19T11:14:25;17.00;99.90
10149;DHT22;5115;50.920;6.376;2023-11-19T11:16:53;17.00;99.90
10149;DHT22;5115;50.920;6.376;2023-11-19T11:19:19;16.90;99.90
10149;DHT22;5115;50.920;6.376;2023-11-19T11:21:49;16.70;99.90
10149;DHT22;5115;50.920;6.376;2023-11-19T11:27:30;16.10;99.90
10149;DHT22;5115;50.920;6.376;2023-11-19T11:38:03;16.30;99.90
10149;DHT22;5115;50.920;6.376;2023-11-19T11:40:29;16.20;99.90
10149;DHT22;5115;50.920;6.376;2023-11-19T11:42:55;16.30;99.90
10149;DHT22;5115;50.920;6.376;2023-11-19T11:45:35;16.30;99.90
10149;DHT22;5115;50.920;6.376;2023-11-19T11:48:09;16.00;99.90
10149;DHT22;5115;50.920;6.376;2023-11-19T11:50:56;16.00;99.90
10149;DHT22;5115;50.920;6.376;2023-11-19T11:53:23;16.00;99.90
10149;DHT22;5115;50.920;6.376;2023-11-19T11:58:19;16.10;99.90
10149;DHT22;5115;50.920;6.376;2023-11-19T12:00:46;16.10;99.90
10149;DHT22;5115;50.920;6.376;2023-11-19T12:03:12;16.10;99.90
10149;DHT22;5115;50.920;6.376;2023-11-19T12:05:42;16.10;99.90
10149;DHT22;5115;50.920;6.376;2023-11-19T12:08:10;16.00;99.90
10149;DHT22;5115;50.920;6.376;2023-11-19T12:10:56;16.00;99.90
10149;DHT22;5115;50.920;6.376;2023-11-19T12:13:23;16.00;99.90
10149;DHT22;5115;50.920;6.376;2023-11-19T12:18:26;15.90;99.90
10149;DHT22;5115;50.920;6.376;2023-11-19T12:20:52;15.20;99.90
10149;DHT22;5115;50.920;6.376;2023-11-19T12:23:18;15.70;99.90
10149;DHT22;5115;50.920;6.376;2023-11-19T12:25:44;15.70;99.90
10149;DHT22;5115;50.920;6.376;2023-11-19T12:28:15;15.70;99.90
10149;DHT22;5115;50.920;6.376;2023-11-19T12:30:43;15.70;99.90
10149;DHT22;5115;50.920;6.376;2023-11-19T12:33:09;15.70;99.90
10149;DHT22;5115;50.920;6.376;2023-11-19T12:35:43;15.60;99.90
10149;DHT22;5115;50.920;6.376;2023-11-19T12:38:22;15.60;99.90
10149;DHT22;5115;50.920;6.376;2023-11-19T12:40:47;15.60;99.90
10149;DHT22;5115;50.920;6.376;2023-11-19T12:43:28;15.70;99.90
10149;DHT22;5115;50.920;6.376;2023-11-19T12:45:53;15.70;99.90
10149;DHT22;5115;50.920;6.376;2023-11-19T12:48:19;15.60;99.90
10149;DHT22;5115;50.920;6.376;2023-11-19T12:50:58;15.60;99.90
10149;DHT22;5115;50.920;6.376;2023-11-19T12:53:26;15.50;99.90
10149;DHT22;5115;50.920;6.376;2023-11-19T12:55:53;15.40;99.90
10149;DHT22;5115;50.920;6.376;2023-11-19T12:58:32;15.30;99.90
10149;DHT22;5115;50.920;6.376;2023-11-19T13:01:02;15.30;99.90
10149;DHT22;5115;50.920;6.376;2023-11-19T13:03:33;15.20;99.90
10149;DHT22;5115;50.920;6.376;2023-11-19T13:06:09;15.20;99.90
10149;DHT22;5115;50.920;6.376;2023-11-19T13:08:37;15.20;99.90
10149;DHT22;5115;50.920;6.376;2023-11-19T13:11:03;15.30;99.90
10149;DHT22;5115;50.920;6.376;2023-11-19T13:13:29;15.20;99.90
10149;DHT22;5115;50.920;6.376;2023-11-19T13:16:02;15.30;99.90
10149;DHT22;5115;50.920;6.376;2023-11-19T13:18:29;15.30;99.90
10149;DHT22;5115;50.920;6.376;2023-11-19T13:20:54;15.20;99.90
10149;DHT22;5115;50.920;6.376;2023-11-19T13:23:22;15.10;99.90
10149;DHT22;5115;50.920;6.376;2023-11-19T13:25:48;15.10;99.90
10149;DHT22;5115;50.920;6.376;2023-11-19T13:28:17;15.00;99.90
10149;DHT22;5115;50.920;6.376;2023-11-19T13:30:43;15.10;99.90
10149;DHT22;5115;50.920;6.376;2023-11-19T13:33:08;15.00;99.90
10149;DHT22;5115;50.920;6.376;2023-11-19T13:35:37;14.90;99.90
10149;DHT22;5115;50.920;6.376;2023-11-19T13:38:05;14.90;99.90
10149;DHT22;5115;50.920;6.376;2023-11-19T13:40:30;15.00;99.90
10149;DHT22;5115;50.920;6.376;2023-11-19T13:42:56;15.00;99.90
10149;DHT22;5115;50.920;6.376;2023-11-19T13:45:21;15.10;99.90
10149;DHT22;5115;50.920;6.376;2023-11-19T13:47:47;15.10;99.90
10149;DHT22;5115;50.920;6.376;2023-11-19T13:50:15;15.10;99.90
10149;DHT22;5115;50.920;6.376;2023-11-19T13:52:42;15.20;99.90
10149;DHT22;5115;50.920;6.376;2023-11-19T13:55:10;15.30;99.90
10149;DHT22;5115;50.920;6.376;2023-11-19T13:57:40;15.40;99.90
10149;DHT22;5115;50.920;6.376;2023-11-19T14:00:07;15.40;99.90
10149;DHT22;5115;50.920;6.376;2023-11-19T14:02:39;15.30;99.90
10149;DHT22;5115;50.920;6.376;2023-11-19T14:05:06;16.10;99.90
10149;DHT22;5115;50.920;6.376;2023-11-19T14:07:31;15.20;99.90
10149;DHT22;5115;50.920;6.376;2023-11-19T14:09:57;15.30;99.90
10149;DHT22;5115;50.920;6.376;2023-11-19T14:12:23;15.10;99.90
10149;DHT22;5115;50.920;6.376;2023-11-19T14:14:48;15.10;99.90
10149;DHT22;5115;50.920;6.376;2023-11-19T14:17:14;15.10;99.90
10149;DHT22;5115;50.920;6.376;2023-11-19T14:19:41;15.00;99.90
10149;DHT22;5115;50.920;6.376;2023-11-19T14:22:07;14.80;99.90
10149;DHT22;5115;50.920;6.376;2023-11-19T14:24:34;14.70;99.90
10149;DHT22;5115;50.920;6.376;2023-11-19T14:26:59;14.70;99.90
10149;DHT22;5115;50.920;6.376;2023-11-19T14:29:25;14.60;99.90
10149;DHT22;5115;50.920;6.376;2023-11-19T14:31:55;14.50;99.90
10149;DHT22;5115;50.920;6.376;2023-11-19T14:34:21;14.40;99.90
10149;DHT22;5115;50.920;6.376;2023-11-19T14:36:46;14.40;99.90
10149;DHT22;5115;50.920;6.376;2023-11-19T14:39:13;14.40;99.90
10149;DHT22;5115;50.920;6.376;2023-11-19T14:41:38;14.30;99.90
10149;DHT22;5115;50.920;6.376;2023-11-19T14:44:04;14.30;99.90
10149;DHT22;5115;50.920;6.376;2023-11-19T14:46:30;14.20;99.90
10149;DHT22;5115;50.920;6.376;2023-11-19T14:48:56;14.20;99.90
10149;DHT22;5115;50.920;6.376;2023-11-19T14:51:22;14.20;99.90
10149;DHT22;5115;50.920;6.376;2023-11-19T14:53:50;14.10;99.90
10149;DHT22;5115;50.920;6.376;2023-11-19T14:56:16;14.10;99.90
10149;DHT22;5115;50.920;6.376;2023-11-19T14:58:41;14.10;99.90
10149;DHT22;5115;50.920;6.376;2023-11-19T15:01:11;14.00;99.90
10149;DHT22;5115;50.920;6.376;2023-11-19T15:03:37;13.90;99.90
10149;DHT22;5115;50.920;6.376;2023-11-19T15:06:03;13.90;99.90
10149;DHT22;5115;50.920;6.376;2023-11-19T15:08:28;13.90;99.90
10149;DHT22;5115;50.920;6.376;2023-11-19T15:10:55;13.80;99.90
10149;DHT22;5115;50.920;6.376;2023-11-19T15:13:22;13.70;99.90
10149;DHT22;5115;50.920;6.376;2023-11-19T15:16:07;13.70;99.90
10149;DHT22;5115;50.920;6.376;2023-11-19T15:18:38;13.00;99.90
10149;DHT22;5115;50.920;6.376;2023-11-19T15:21:04;13.50;99.90
10149;DHT22;5115;50.920;6.376;2023-11-19T15:23:29;13.40;99.90
10149;DHT22;5115;50.920;6.376;2023-11-19T15:25:55;13.40;99.90
10149;DHT22;5115;50.920;6.376;2023-11-19T15:28:21;13.40;99.90
10149;DHT22;5115;50.920;6.376;2023-11-19T15:30:47;13.40;99.90
10149;DHT22;5115;50.920;6.376;2023-11-19T15:33:12;13.30;99.90
10149;DHT22;5115;50.920;6.376;2023-11-19T15:35:38;13.20;99.90
10149;DHT22;5115;50.920;6.376;2023-11-19T15:38:04;13.20;99.90
10149;DHT22;5115;50.920;6.376;2023-11-19T15:40:30;13.20;99.90
10149;DHT22;5115;50.920;6.376;2023-11-19T15:42:56;13.20;99.90
10149;DHT22;5115;50.920;6.376;2023-11-19T15:45:23;13.20;99.90
10149;DHT22;5115;50.920;6.376;2023-11-19T15:47:49;13.20;99.90
10149;DHT22;5115;50.920;6.376;2023-11-19T15:50:15;13.20;99.90
10149;DHT22;5115;50.920;6.376;2023-11-19T15:52:40;13.20;99.90
10149;DHT22;5115;50.920;6.376;2023-11-19T15:55:06;13.20;99.90
10149;DHT22;5115;50.920;6.376;2023-11-19T15:57:32;13.20;99.90
10149;DHT22;5115;50.920;6.376;2023-11-19T15:59:58;13.30;99.90